sensor_id;sensor_type;location;lat;lon;timestamp;temperature;humidity
831;DHT22;397;50.564;7.272;2023-01-05T00:01:07;12.60;99.90
831;DHT22;397;50.564;7.272;2023-01-05T00:03:31;12.60;99.90
831;DHT22;397;50.564;7.272;2023-01-05T00:06:00;12.40;99.90
831;DHT22;397;50.564;7.272;2023-01-05T00:08:28;12.40;99.90
831;DHT22;397;50.564;7.272;2023-01-05T00:10:55;12.30;99.90
831;DHT22;397;50.564;7.272;2023-01-05T00:13:41;12.30;99.90
831;DHT22;397;50.564;7.272;2023-01-05T00:16:27;12.20;99.90
831;DHT22;397;50.564;7.272;2023-01-05T00:19:12;12.10;99.90
831;DHT22;397;50.564;7.272;2023-01-05T00:21:58;12.10;99.90
831;DHT22;397;50.564;7.272;2023-01-05T00:24:43;12.10;99.90
831;DHT22;397;50.564;7.272;2023-01-05T00:27:11;12.00;99.90
831;DHT22;397;50.564;7.272;2023-01-05T00:29:38;11.90;99.90
831;DHT22;397;50.564;7.272;2023-01-05T00:32:06;11.90;99.90
831;DHT22;397;50.564;7.272;2023-01-05T00:34:33;11.80;99.90
831;DHT22;397;50.564;7.272;2023-01-05T00:37:01;11.80;99.90
831;DHT22;397;50.564;7.272;2023-01-05T00:39:28;11.80;99.90
831;DHT22;397;50.564;7.272;2023-01-05T00:41:56;11.70;99.90
831;DHT22;397;50.564;7.272;2023-01-05T00:44:23;11.80;99.90
831;DHT22;397;50.564;7.272;2023-01-05T00:46:50;11.70;99.90
831;DHT22;397;50.564;7.272;2023-01-05T00:49:18;11.80;99.90
831;DHT22;397;50.564;7.272;2023-01-05T00:51:46;11.90;99.90
831;DHT22;397;50.564;7.272;2023-01-05T00:54:13;12.00;99.90
831;DHT22;397;50.564;7.272;2023-01-05T00:56:41;11.90;99.90
831;DHT22;397;50.564;7.272;2023-01-05T00:59:09;12.00;99.90
831;DHT22;397;50.564;7.272;2023-01-05T01:01:36;12.00;99.90
831;DHT22;397;50.564;7.272;2023-01-05T01:04:04;12.00;99.90
831;DHT22;397;50.564;7.272;2023-01-05T01:06:31;12.00;99.90
831;DHT22;397;50.564;7.272;2023-01-05T01:08:59;12.00;99.90
831;DHT22;397;50.564;7.272;2023-01-05T01:11:26;12.00;99.90
831;DHT22;397;50.564;7.272;2023-01-05T01:13:54;12.10;99.90
831;DHT22;397;50.564;7.272;2023-01-05T01:16:21;12.10;99.90
831;DHT22;397;50.564;7.272;2023-01-05T01:18:49;12.10;99.90
831;DHT22;397;50.564;7.272;2023-01-05T01:21:17;12.20;99.90
831;DHT22;397;50.564;7.272;2023-01-05T01:23:44;12.20;99.90
831;DHT22;397;50.564;7.272;2023-01-05T01:26:12;12.20;99.90
831;DHT22;397;50.564;7.272;2023-01-05T01:28:40;12.20;99.90
831;DHT22;397;50.564;7.272;2023-01-05T01:31:08;12.20;99.90
831;DHT22;397;50.564;7.272;2023-01-05T01:33:38;12.20;99.90
831;DHT22;397;50.564;7.272;2023-01-05T01:36:07;12.20;99.90
831;DHT22;397;50.564;7.272;2023-01-05T01:38:35;12.20;99.90
831;DHT22;397;50.564;7.272;2023-01-05T01:41:02;12.10;99.90
831;DHT22;397;50.564;7.272;2023-01-05T01:43:48;12.10;99.90
831;DHT22;397;50.564;7.272;2023-01-05T01:46:17;12.10;99.90
831;DHT22;397;50.564;7.272;2023-01-05T01:48:52;12.10;99.90
831;DHT22;397;50.564;7.272;2023-01-05T01:51:23;12.00;99.90
831;DHT22;397;50.564;7.272;2023-01-05T01:53:55;12.10;99.90
831;DHT22;397;50.564;7.272;2023-01-05T01:56:23;12.10;99.90
831;DHT22;397;50.564;7.272;2023-01-05T01:58:52;12.10;99.90
831;DHT22;397;50.564;7.272;2023-01-05T02:01:20;12.10;99.90
831;DHT22;397;50.564;7.272;2023-01-05T02:03:48;12.10;99.90
831;DHT22;397;50.564;7.272;2023-01-05T02:06:16;12.10;99.90
831;DHT22;397;50.564;7.272;2023-01-05T02:08:44;12.10;99.90
831;DHT22;397;50.564;7.272;2023-01-05T02:14:10;12.00;99.90
831;DHT22;397;50.564;7.272;2023-01-05T02:16:45;12.00;99.90
831;DHT22;397;50.564;7.272;2023-01-05T02:19:23;12.10;99.90
831;DHT22;397;50.564;7.272;2023-01-05T02:25:32;12.10;99.90
831;DHT22;397;50.564;7.272;2023-01-05T02:27:48;12.10;99.90
831;DHT22;397;50.564;7.272;2023-01-05T02:33:33;12.10;99.90
831;DHT22;397;50.564;7.272;2023-01-05T02:38:52;12.10;99.90
831;DHT22;397;50.564;7.272;2023-01-05T02:41:24;12.00;99.90
831;DHT22;397;50.564;7.272;2023-01-05T02:43:51;12.10;99.90
831;DHT22;397;50.564;7.272;2023-01-05T02:46:19;12.10;99.90
831;DHT22;397;50.564;7.272;2023-01-05T02:48:49;12.10;99.90
831;DHT22;397;50.564;7.272;2023-01-05T02:51:21;12.10;99.90
831;DHT22;397;50.564;7.272;2023-01-05T02:53:58;12.10;99.90
831;DHT22;397;50.564;7.272;2023-01-05T02:56:28;12.10;99.90
831;DHT22;397;50.564;7.272;2023-01-05T02:59:02;12.10;99.90
831;DHT22;397;50.564;7.272;2023-01-05T03:01:31;12.10;99.90
831;DHT22;397;50.564;7.272;2023-01-05T03:04:18;12.10;99.90
831;DHT22;397;50.564;7.272;2023-01-05T03:06:50;12.10;99.90
831;DHT22;397;50.564;7.272;2023-01-05T03:09:19;12.10;99.90
831;DHT22;397;50.564;7.272;2023-01-05T03:12:06;12.10;99.90
831;DHT22;397;50.564;7.272;2023-01-05T03:14:55;12.10;99.90
831;DHT22;397;50.564;7.272;2023-01-05T03:17:32;12.10;99.90
831;DHT22;397;50.564;7.272;2023-01-05T03:19:56;12.10;99.90
831;DHT22;397;50.564;7.272;2023-01-05T03:22:27;12.10;99.90
831;DHT22;397;50.564;7.272;2023-01-05T03:25:15;12.10;99.90
831;DHT22;397;50.564;7.272;2023-01-05T03:28:05;12.10;99.90
831;DHT22;397;50.564;7.272;2023-01-05T03:30:59;12.10;99.90
831;DHT22;397;50.564;7.272;2023-01-05T03:33:57;12.00;99.90
831;DHT22;397;50.564;7.272;2023-01-05T03:37:02;12.10;99.90
831;DHT22;397;50.564;7.272;2023-01-05T03:39:25;12.00;99.90
831;DHT22;397;50.564;7.272;2023-01-05T03:41:53;11.90;99.90
831;DHT22;397;50.564;7.272;2023-01-05T03:44:22;11.90;99.90
831;DHT22;397;50.564;7.272;2023-01-05T03:46:50;11.90;99.90
831;DHT22;397;50.564;7.272;2023-01-05T03:49:18;12.00;99.90
831;DHT22;397;50.564;7.272;2023-01-05T03:51:45;12.00;99.90
831;DHT22;397;50.564;7.272;2023-01-05T03:54:13;12.00;99.90
831;DHT22;397;50.564;7.272;2023-01-05T03:56:40;11.90;99.90
831;DHT22;397;50.564;7.272;2023-01-05T03:59:08;11.90;99.90
831;DHT22;397;50.564;7.272;2023-01-05T04:01:35;11.90;99.90
831;DHT22;397;50.564;7.272;2023-01-05T04:04:03;12.00;99.90
831;DHT22;397;50.564;7.272;2023-01-05T04:06:31;12.00;99.90
831;DHT22;397;50.564;7.272;2023-01-05T04:08:58;12.00;99.90
831;DHT22;397;50.564;7.272;2023-01-05T04:11:26;12.00;99.90
831;DHT22;397;50.564;7.272;2023-01-05T04:13:53;12.00;99.90
831;DHT22;397;50.564;7.272;2023-01-05T04:16:21;11.90;99.90
831;DHT22;397;50.564;7.272;2023-01-05T04:18:49;11.90;99.90
831;DHT22;397;50.564;7.272;2023-01-05T04:21:16;11.90;99.90
831;DHT22;397;50.564;7.272;2023-01-05T04:23:44;11.90;99.90
831;DHT22;397;50.564;7.272;2023-01-05T04:26:11;11.90;99.90
831;DHT22;397;50.564;7.272;2023-01-05T04:28:39;11.90;99.90
831;DHT22;397;50.564;7.272;2023-01-05T04:31:06;11.90;99.90
831;DHT22;397;50.564;7.272;2023-01-05T04:33:34;11.90;99.90
831;DHT22;397;50.564;7.272;2023-01-05T04:36:03;11.90;99.90
831;DHT22;397;50.564;7.272;2023-01-05T04:38:31;11.90;99.90
831;DHT22;397;50.564;7.272;2023-01-05T04:40:58;11.90;99.90
831;DHT22;397;50.564;7.272;2023-01-05T04:43:26;11.90;99.90
831;DHT22;397;50.564;7.272;2023-01-05T04:45:53;11.90;99.90
831;DHT22;397;50.564;7.272;2023-01-05T04:48:21;11.90;99.90
831;DHT22;397;50.564;7.272;2023-01-05T04:50:53;11.90;99.90
831;DHT22;397;50.564;7.272;2023-01-05T04:53:21;11.80;99.90
831;DHT22;397;50.564;7.272;2023-01-05T04:55:49;11.90;99.90
831;DHT22;397;50.564;7.272;2023-01-05T04:58:18;11.80;99.90
831;DHT22;397;50.564;7.272;2023-01-05T05:00:47;11.90;99.90
831;DHT22;397;50.564;7.272;2023-01-05T05:03:16;11.90;99.90
831;DHT22;397;50.564;7.272;2023-01-05T05:05:43;11.90;99.90
831;DHT22;397;50.564;7.272;2023-01-05T05:08:11;11.90;99.90
831;DHT22;397;50.564;7.272;2023-01-05T05:10:39;11.80;99.90
831;DHT22;397;50.564;7.272;2023-01-05T05:13:07;11.90;99.90
831;DHT22;397;50.564;7.272;2023-01-05T05:15:34;11.90;99.90
831;DHT22;397;50.564;7.272;2023-01-05T05:18:02;11.90;99.90
831;DHT22;397;50.564;7.272;2023-01-05T05:20:30;11.90;99.90
831;DHT22;397;50.564;7.272;2023-01-05T05:22:57;11.90;99.90
831;DHT22;397;50.564;7.272;2023-01-05T05:25:25;11.90;99.90
831;DHT22;397;50.564;7.272;2023-01-05T05:27:52;11.90;99.90
831;DHT22;397;50.564;7.272;2023-01-05T05:30:20;11.90;99.90
831;DHT22;397;50.564;7.272;2023-01-05T05:32:47;11.90;99.90
831;DHT22;397;50.564;7.272;2023-01-05T05:35:15;11.90;99.90
831;DHT22;397;50.564;7.272;2023-01-05T05:37:42;11.90;99.90
831;DHT22;397;50.564;7.272;2023-01-05T05:40:11;11.80;99.90
831;DHT22;397;50.564;7.272;2023-01-05T05:42:38;11.90;99.90
831;DHT22;397;50.564;7.272;2023-01-05T05:45:07;11.80;99.90
831;DHT22;397;50.564;7.272;2023-01-05T05:47:34;11.70;99.90
831;DHT22;397;50.564;7.272;2023-01-05T05:50:02;11.70;99.90
831;DHT22;397;50.564;7.272;2023-01-05T05:52:30;11.70;99.90
831;DHT22;397;50.564;7.272;2023-01-05T05:54:57;11.80;99.90
831;DHT22;397;50.564;7.272;2023-01-05T05:57:25;11.70;99.90
831;DHT22;397;50.564;7.272;2023-01-05T05:59:52;11.70;99.90
831;DHT22;397;50.564;7.272;2023-01-05T06:02:20;11.70;99.90
831;DHT22;397;50.564;7.272;2023-01-05T06:04:47;11.70;99.90
831;DHT22;397;50.564;7.272;2023-01-05T06:07:14;11.70;99.90
831;DHT22;397;50.564;7.272;2023-01-05T06:09:42;11.60;99.90
831;DHT22;397;50.564;7.272;2023-01-05T06:12:09;11.70;99.90
831;DHT22;397;50.564;7.272;2023-01-05T06:14:37;11.70;99.90
831;DHT22;397;50.564;7.272;2023-01-05T06:17:04;11.70;99.90
831;DHT22;397;50.564;7.272;2023-01-05T06:19:32;11.70;99.90
831;DHT22;397;50.564;7.272;2023-01-05T06:21:59;11.70;99.90
831;DHT22;397;50.564;7.272;2023-01-05T06:24:27;11.70;99.90
831;DHT22;397;50.564;7.272;2023-01-05T06:26:54;11.60;99.90
831;DHT22;397;50.564;7.272;2023-01-05T06:29:22;11.70;99.90
831;DHT22;397;50.564;7.272;2023-01-05T06:31:49;11.60;99.90
831;DHT22;397;50.564;7.272;2023-01-05T06:34:17;11.60;99.90
831;DHT22;397;50.564;7.272;2023-01-05T06:36:44;11.70;99.90
831;DHT22;397;50.564;7.272;2023-01-05T06:39:12;11.60;99.90
831;DHT22;397;50.564;7.272;2023-01-05T06:41:39;11.60;99.90
831;DHT22;397;50.564;7.272;2023-01-05T06:44:07;11.60;99.90
831;DHT22;397;50.564;7.272;2023-01-05T06:46:35;11.70;99.90
831;DHT22;397;50.564;7.272;2023-01-05T06:49:02;11.60;99.90
831;DHT22;397;50.564;7.272;2023-01-05T06:51:30;11.60;99.90
831;DHT22;397;50.564;7.272;2023-01-05T06:53:57;11.60;99.90
831;DHT22;397;50.564;7.272;2023-01-05T06:56:25;11.60;99.90
831;DHT22;397;50.564;7.272;2023-01-05T06:58:52;11.60;99.90
831;DHT22;397;50.564;7.272;2023-01-05T07:01:20;11.60;99.90
831;DHT22;397;50.564;7.272;2023-01-05T07:03:47;11.60;99.90
831;DHT22;397;50.564;7.272;2023-01-05T07:06:15;11.70;99.90
831;DHT22;397;50.564;7.272;2023-01-05T07:08:43;11.70;99.90
831;DHT22;397;50.564;7.272;2023-01-05T07:11:10;11.60;99.90
831;DHT22;397;50.564;7.272;2023-01-05T07:13:39;11.60;99.90
831;DHT22;397;50.564;7.272;2023-01-05T07:16:07;11.60;99.90
831;DHT22;397;50.564;7.272;2023-01-05T07:18:34;11.70;99.90
831;DHT22;397;50.564;7.272;2023-01-05T07:21:02;11.60;99.90
831;DHT22;397;50.564;7.272;2023-01-05T07:23:29;11.70;99.90
831;DHT22;397;50.564;7.272;2023-01-05T07:25:58;11.70;99.90
831;DHT22;397;50.564;7.272;2023-01-05T07:28:27;11.80;99.90
831;DHT22;397;50.564;7.272;2023-01-05T07:30:54;11.80;99.90
831;DHT22;397;50.564;7.272;2023-01-05T07:33:22;11.80;99.90
831;DHT22;397;50.564;7.272;2023-01-05T07:35:50;11.70;99.90
831;DHT22;397;50.564;7.272;2023-01-05T07:38:17;11.80;99.90
831;DHT22;397;50.564;7.272;2023-01-05T07:40:45;11.70;99.90
831;DHT22;397;50.564;7.272;2023-01-05T07:43:12;11.70;99.90
831;DHT22;397;50.564;7.272;2023-01-05T07:45:40;11.70;99.90
831;DHT22;397;50.564;7.272;2023-01-05T07:48:07;11.70;99.90
831;DHT22;397;50.564;7.272;2023-01-05T07:50:35;11.80;99.90
831;DHT22;397;50.564;7.272;2023-01-05T07:53:02;11.70;99.90
831;DHT22;397;50.564;7.272;2023-01-05T07:55:30;11.70;99.90
831;DHT22;397;50.564;7.272;2023-01-05T07:57:57;11.80;99.90
831;DHT22;397;50.564;7.272;2023-01-05T08:00:25;11.70;99.90
831;DHT22;397;50.564;7.272;2023-01-05T08:02:52;11.70;99.90
831;DHT22;397;50.564;7.272;2023-01-05T08:05:20;11.70;99.90
831;DHT22;397;50.564;7.272;2023-01-05T08:07:47;11.80;99.90
831;DHT22;397;50.564;7.272;2023-01-05T08:10:15;11.80;99.90
831;DHT22;397;50.564;7.272;2023-01-05T08:13:05;11.70;99.90
831;DHT22;397;50.564;7.272;2023-01-05T08:15:52;11.80;99.90
831;DHT22;397;50.564;7.272;2023-01-05T08:18:20;11.80;99.90
831;DHT22;397;50.564;7.272;2023-01-05T08:20:53;11.80;99.90
831;DHT22;397;50.564;7.272;2023-01-05T08:23:22;11.80;99.90
831;DHT22;397;50.564;7.272;2023-01-05T08:25:50;11.90;99.90
831;DHT22;397;50.564;7.272;2023-01-05T08:28:18;11.80;99.90
831;DHT22;397;50.564;7.272;2023-01-05T08:30:45;11.90;99.90
831;DHT22;397;50.564;7.272;2023-01-05T08:33:13;11.90;99.90
831;DHT22;397;50.564;7.272;2023-01-05T08:35:42;11.90;99.90
831;DHT22;397;50.564;7.272;2023-01-05T08:38:10;11.90;99.90
831;DHT22;397;50.564;7.272;2023-01-05T08:40:38;12.00;99.90
831;DHT22;397;50.564;7.272;2023-01-05T08:43:06;12.00;99.90
831;DHT22;397;50.564;7.272;2023-01-05T08:45:33;12.00;99.90
831;DHT22;397;50.564;7.272;2023-01-05T08:48:01;12.00;99.90
831;DHT22;397;50.564;7.272;2023-01-05T08:50:28;12.00;99.90
831;DHT22;397;50.564;7.272;2023-01-05T08:52:57;12.00;99.90
831;DHT22;397;50.564;7.272;2023-01-05T08:55:24;12.00;99.90
831;DHT22;397;50.564;7.272;2023-01-05T08:57:52;12.00;99.90
831;DHT22;397;50.564;7.272;2023-01-05T09:00:19;12.00;99.90
831;DHT22;397;50.564;7.272;2023-01-05T09:02:47;12.10;99.90
831;DHT22;397;50.564;7.272;2023-01-05T09:05:15;12.10;99.90
831;DHT22;397;50.564;7.272;2023-01-05T09:07:42;12.20;99.90
831;DHT22;397;50.564;7.272;2023-01-05T09:10:10;12.20;99.90
831;DHT22;397;50.564;7.272;2023-01-05T09:12:38;12.30;99.90
831;DHT22;397;50.564;7.272;2023-01-05T09:15:06;12.30;99.90
831;DHT22;397;50.564;7.272;2023-01-05T09:17:34;12.40;99.90
831;DHT22;397;50.564;7.272;2023-01-05T09:20:05;12.40;99.90
831;DHT22;397;50.564;7.272;2023-01-05T09:22:32;12.40;99.90
831;DHT22;397;50.564;7.272;2023-01-05T09:25:02;12.50;99.90
831;DHT22;397;50.564;7.272;2023-01-05T09:27:30;12.50;99.90
831;DHT22;397;50.564;7.272;2023-01-05T09:29:57;12.60;99.90
831;DHT22;397;50.564;7.272;2023-01-05T09:32:25;12.60;99.90
831;DHT22;397;50.564;7.272;2023-01-05T09:34:52;12.60;99.90
831;DHT22;397;50.564;7.272;2023-01-05T09:37:20;12.70;99.90
831;DHT22;397;50.564;7.272;2023-01-05T09:39:47;12.60;99.90
831;DHT22;397;50.564;7.272;2023-01-05T09:42:18;12.60;99.90
831;DHT22;397;50.564;7.272;2023-01-05T09:44:48;12.50;99.90
831;DHT22;397;50.564;7.272;2023-01-05T09:47:37;12.60;99.90
831;DHT22;397;50.564;7.272;2023-01-05T09:50:07;12.70;99.90
831;DHT22;397;50.564;7.272;2023-01-05T09:52:35;12.70;99.90
831;DHT22;397;50.564;7.272;2023-01-05T09:55:17;12.70;99.90
831;DHT22;397;50.564;7.272;2023-01-05T09:58:11;12.80;99.90
831;DHT22;397;50.564;7.272;2023-01-05T10:00:34;12.90;99.90
831;DHT22;397;50.564;7.272;2023-01-05T10:03:18;12.80;99.90
831;DHT22;397;50.564;7.272;2023-01-05T10:05:40;12.90;99.90
831;DHT22;397;50.564;7.272;2023-01-05T10:08:12;12.90;99.90
831;DHT22;397;50.564;7.272;2023-01-05T10:13:25;12.90;99.90
831;DHT22;397;50.564;7.272;2023-01-05T10:15:54;12.80;99.90
831;DHT22;397;50.564;7.272;2023-01-05T10:18:24;12.90;99.90
831;DHT22;397;50.564;7.272;2023-01-05T10:21:15;12.90;99.90
831;DHT22;397;50.564;7.272;2023-01-05T10:29:16;12.90;99.90
831;DHT22;397;50.564;7.272;2023-01-05T10:42:43;13.10;99.90
831;DHT22;397;50.564;7.272;2023-01-05T10:45:16;13.20;99.90
831;DHT22;397;50.564;7.272;2023-01-05T10:47:44;13.30;99.90
831;DHT22;397;50.564;7.272;2023-01-05T10:50:25;13.20;99.90
831;DHT22;397;50.564;7.272;2023-01-05T10:52:53;13.20;99.90
831;DHT22;397;50.564;7.272;2023-01-05T10:55:21;13.30;99.90
831;DHT22;397;50.564;7.272;2023-01-05T10:57:49;13.30;99.90
831;DHT22;397;50.564;7.272;2023-01-05T11:00:18;13.40;99.90
831;DHT22;397;50.564;7.272;2023-01-05T11:02:59;13.30;99.90
831;DHT22;397;50.564;7.272;2023-01-05T11:05:34;13.30;99.90
831;DHT22;397;50.564;7.272;2023-01-05T11:13:29;13.40;99.90
831;DHT22;397;50.564;7.272;2023-01-05T11:16:05;13.40;99.90
831;DHT22;397;50.564;7.272;2023-01-05T11:21:14;13.30;99.90
831;DHT22;397;50.564;7.272;2023-01-05T11:23:41;13.30;99.90
831;DHT22;397;50.564;7.272;2023-01-05T11:29:11;13.20;99.90
831;DHT22;397;50.564;7.272;2023-01-05T11:31:54;13.30;99.90
831;DHT22;397;50.564;7.272;2023-01-05T11:34:34;13.30;99.90
831;DHT22;397;50.564;7.272;2023-01-05T11:39:48;13.30;99.90
831;DHT22;397;50.564;7.272;2023-01-05T11:44:58;13.30;99.90
831;DHT22;397;50.564;7.272;2023-01-05T11:47:32;13.30;99.90
831;DHT22;397;50.564;7.272;2023-01-05T11:50:05;13.50;99.90
831;DHT22;397;50.564;7.272;2023-01-05T11:52:38;13.50;99.90
831;DHT22;397;50.564;7.272;2023-01-05T11:55:26;13.50;99.90
831;DHT22;397;50.564;7.272;2023-01-05T11:58:14;13.40;99.90
831;DHT22;397;50.564;7.272;2023-01-05T12:09:29;13.40;99.90
831;DHT22;397;50.564;7.272;2023-01-05T12:20:39;13.40;99.90
831;DHT22;397;50.564;7.272;2023-01-05T12:23:26;13.30;99.90
831;DHT22;397;50.564;7.272;2023-01-05T12:26:14;13.30;99.90
831;DHT22;397;50.564;7.272;2023-01-05T12:34:10;13.50;99.90
831;DHT22;397;50.564;7.272;2023-01-05T12:39:56;13.60;99.90
831;DHT22;397;50.564;7.272;2023-01-05T12:48:29;13.40;99.90
831;DHT22;397;50.564;7.272;2023-01-05T12:51:20;13.40;99.90
831;DHT22;397;50.564;7.272;2023-01-05T12:56:20;13.20;99.90
831;DHT22;397;50.564;7.272;2023-01-05T12:59:13;13.40;99.90
831;DHT22;397;50.564;7.272;2023-01-05T13:01:22;13.50;99.90
831;DHT22;397;50.564;7.272;2023-01-05T13:03:55;13.50;99.90
831;DHT22;397;50.564;7.272;2023-01-05T13:06:24;13.30;99.90
831;DHT22;397;50.564;7.272;2023-01-05T13:08:55;13.30;99.90
831;DHT22;397;50.564;7.272;2023-01-05T13:11:30;13.30;99.90
831;DHT22;397;50.564;7.272;2023-01-05T13:14:06;13.30;99.90
831;DHT22;397;50.564;7.272;2023-01-05T13:16:39;13.50;99.90
831;DHT22;397;50.564;7.272;2023-01-05T13:19:22;13.50;99.90
831;DHT22;397;50.564;7.272;2023-01-05T13:21:43;13.70;99.90
831;DHT22;397;50.564;7.272;2023-01-05T13:24:14;13.70;99.90
831;DHT22;397;50.564;7.272;2023-01-05T13:26:43;13.80;99.90
831;DHT22;397;50.564;7.272;2023-01-05T13:29:20;13.80;99.90
831;DHT22;397;50.564;7.272;2023-01-05T13:31:53;13.90;99.90
831;DHT22;397;50.564;7.272;2023-01-05T13:46:17;13.70;99.90
831;DHT22;397;50.564;7.272;2023-01-05T13:51:33;13.60;99.90
831;DHT22;397;50.564;7.272;2023-01-05T13:54:01;13.50;99.90
831;DHT22;397;50.564;7.272;2023-01-05T13:56:30;13.60;99.90
831;DHT22;397;50.564;7.272;2023-01-05T13:59:07;13.50;99.90
831;DHT22;397;50.564;7.272;2023-01-05T14:01:40;13.50;99.90
831;DHT22;397;50.564;7.272;2023-01-05T14:04:20;13.40;99.90
831;DHT22;397;50.564;7.272;2023-01-05T14:06:50;13.40;99.90
831;DHT22;397;50.564;7.272;2023-01-05T14:09:39;13.40;99.90
831;DHT22;397;50.564;7.272;2023-01-05T14:17:57;13.40;99.90
831;DHT22;397;50.564;7.272;2023-01-05T14:20:46;13.40;99.90
831;DHT22;397;50.564;7.272;2023-01-05T14:25:58;13.30;99.90
831;DHT22;397;50.564;7.272;2023-01-05T14:33:48;13.30;99.90
831;DHT22;397;50.564;7.272;2023-01-05T14:39:05;13.20;99.90
831;DHT22;397;50.564;7.272;2023-01-05T14:41:33;13.30;99.90
831;DHT22;397;50.564;7.272;2023-01-05T14:44:13;13.20;99.90
831;DHT22;397;50.564;7.272;2023-01-05T14:46:46;13.00;99.90
831;DHT22;397;50.564;7.272;2023-01-05T14:49:27;13.10;99.90
831;DHT22;397;50.564;7.272;2023-01-05T14:51:56;13.10;99.90
831;DHT22;397;50.564;7.272;2023-01-05T14:54:35;13.10;99.90
831;DHT22;397;50.564;7.272;2023-01-05T15:00:04;13.00;99.90
831;DHT22;397;50.564;7.272;2023-01-05T15:02:58;13.00;99.90
831;DHT22;397;50.564;7.272;2023-01-05T15:05:16;13.00;99.90
831;DHT22;397;50.564;7.272;2023-01-05T15:08:10;13.00;99.90
831;DHT22;397;50.564;7.272;2023-01-05T15:10:41;13.00;99.90
831;DHT22;397;50.564;7.272;2023-01-05T15:21:43;12.80;99.90
831;DHT22;397;50.564;7.272;2023-01-05T15:24:18;12.90;99.90
831;DHT22;397;50.564;7.272;2023-01-05T15:27:01;12.90;99.90
831;DHT22;397;50.564;7.272;2023-01-05T15:32:37;12.90;99.90
831;DHT22;397;50.564;7.272;2023-01-05T15:35:19;12.90;99.90
831;DHT22;397;50.564;7.272;2023-01-05T15:37:47;12.80;99.90
831;DHT22;397;50.564;7.272;2023-01-05T15:40:26;12.70;99.90
831;DHT22;397;50.564;7.272;2023-01-05T15:42:56;12.60;99.90
831;DHT22;397;50.564;7.272;2023-01-05T15:45:36;12.60;99.90
831;DHT22;397;50.564;7.272;2023-01-05T15:48:11;12.60;99.90
831;DHT22;397;50.564;7.272;2023-01-05T15:50:42;12.60;99.90
831;DHT22;397;50.564;7.272;2023-01-05T15:55:53;12.50;99.90
831;DHT22;397;50.564;7.272;2023-01-05T15:58:22;12.30;99.90
831;DHT22;397;50.564;7.272;2023-01-05T16:01:02;12.30;99.90
831;DHT22;397;50.564;7.272;2023-01-05T16:03:33;12.30;99.90
831;DHT22;397;50.564;7.272;2023-01-05T16:06:09;12.30;99.90
831;DHT22;397;50.564;7.272;2023-01-05T16:08:34;12.10;99.90
831;DHT22;397;50.564;7.272;2023-01-05T16:11:04;12.10;99.90
831;DHT22;397;50.564;7.272;2023-01-05T16:13:54;12.00;99.90
831;DHT22;397;50.564;7.272;2023-01-05T16:16:39;11.90;99.90
831;DHT22;397;50.564;7.272;2023-01-05T16:19:01;11.90;99.90
831;DHT22;397;50.564;7.272;2023-01-05T16:21:34;12.00;99.90
831;DHT22;397;50.564;7.272;2023-01-05T16:24:05;12.10;99.90
831;DHT22;397;50.564;7.272;2023-01-05T16:26:34;12.10;99.90
831;DHT22;397;50.564;7.272;2023-01-05T16:29:49;12.00;99.90
831;DHT22;397;50.564;7.272;2023-01-05T16:31:34;12.00;99.90
831;DHT22;397;50.564;7.272;2023-01-05T16:34:05;12.00;99.90
831;DHT22;397;50.564;7.272;2023-01-05T16:36:32;11.80;99.90
831;DHT22;397;50.564;7.272;2023-01-05T16:39:21;11.50;99.90
831;DHT22;397;50.564;7.272;2023-01-05T16:42:00;11.40;99.90
831;DHT22;397;50.564;7.272;2023-01-05T16:44:36;11.40;99.90
831;DHT22;397;50.564;7.272;2023-01-05T16:47:06;11.30;99.90
831;DHT22;397;50.564;7.272;2023-01-05T16:49:37;11.20;99.90
831;DHT22;397;50.564;7.272;2023-01-05T16:52:17;11.20;99.90
831;DHT22;397;50.564;7.272;2023-01-05T16:54:39;11.20;99.90
831;DHT22;397;50.564;7.272;2023-01-05T16:57:29;11.20;99.90
831;DHT22;397;50.564;7.272;2023-01-05T16:59:57;11.10;99.90
831;DHT22;397;50.564;7.272;2023-01-05T17:02:42;11.10;99.90
831;DHT22;397;50.564;7.272;2023-01-05T17:05:13;11.20;99.90
831;DHT22;397;50.564;7.272;2023-01-05T17:07:43;11.20;99.90
831;DHT22;397;50.564;7.272;2023-01-05T17:10:22;11.30;99.90
831;DHT22;397;50.564;7.272;2023-01-05T17:13:06;11.20;99.90
831;DHT22;397;50.564;7.272;2023-01-05T17:15:25;11.30;99.90
831;DHT22;397;50.564;7.272;2023-01-05T17:17:54;11.40;99.90
831;DHT22;397;50.564;7.272;2023-01-05T17:20:25;11.40;99.90
831;DHT22;397;50.564;7.272;2023-01-05T17:22:53;11.40;99.90
831;DHT22;397;50.564;7.272;2023-01-05T17:25:22;11.50;99.90
831;DHT22;397;50.564;7.272;2023-01-05T17:27:51;11.50;99.90
831;DHT22;397;50.564;7.272;2023-01-05T17:30:20;11.50;99.90
831;DHT22;397;50.564;7.272;2023-01-05T17:32:48;11.50;99.90
831;DHT22;397;50.564;7.272;2023-01-05T17:35:16;11.50;99.90
831;DHT22;397;50.564;7.272;2023-01-05T17:37:43;11.50;99.90
831;DHT22;397;50.564;7.272;2023-01-05T17:40:15;11.50;99.90
831;DHT22;397;50.564;7.272;2023-01-05T17:42:41;11.60;99.90
831;DHT22;397;50.564;7.272;2023-01-05T17:45:18;11.60;99.90
831;DHT22;397;50.564;7.272;2023-01-05T17:47:46;11.50;99.90
831;DHT22;397;50.564;7.272;2023-01-05T17:50:21;11.50;99.90
831;DHT22;397;50.564;7.272;2023-01-05T17:52:49;11.50;99.90
831;DHT22;397;50.564;7.272;2023-01-05T17:55:16;11.40;99.90
831;DHT22;397;50.564;7.272;2023-01-05T17:57:45;11.40;99.90
831;DHT22;397;50.564;7.272;2023-01-05T18:00:14;11.50;99.90
831;DHT22;397;50.564;7.272;2023-01-05T18:02:42;11.50;99.90
831;DHT22;397;50.564;7.272;2023-01-05T18:05:11;11.50;99.90
831;DHT22;397;50.564;7.272;2023-01-05T18:07:40;11.50;99.90
831;DHT22;397;50.564;7.272;2023-01-05T18:10:12;11.50;99.90
831;DHT22;397;50.564;7.272;2023-01-05T18:12:38;11.30;99.90
831;DHT22;397;50.564;7.272;2023-01-05T18:15:07;11.40;99.90
831;DHT22;397;50.564;7.272;2023-01-05T18:17:36;11.50;99.90
831;DHT22;397;50.564;7.272;2023-01-05T18:20:05;11.60;99.90
831;DHT22;397;50.564;7.272;2023-01-05T18:22:33;11.60;99.90
831;DHT22;397;50.564;7.272;2023-01-05T18:25:01;11.70;99.90
831;DHT22;397;50.564;7.272;2023-01-05T18:27:28;11.70;99.90
831;DHT22;397;50.564;7.272;2023-01-05T18:29:57;11.70;99.90
831;DHT22;397;50.564;7.272;2023-01-05T18:32:25;11.70;99.90
831;DHT22;397;50.564;7.272;2023-01-05T18:34:52;11.70;99.90
831;DHT22;397;50.564;7.272;2023-01-05T18:37:20;11.80;99.90
831;DHT22;397;50.564;7.272;2023-01-05T18:39:47;11.80;99.90
831;DHT22;397;50.564;7.272;2023-01-05T18:42:15;11.80;99.90
831;DHT22;397;50.564;7.272;2023-01-05T18:44:42;11.80;99.90
831;DHT22;397;50.564;7.272;2023-01-05T18:47:10;11.80;99.90
831;DHT22;397;50.564;7.272;2023-01-05T18:49:37;11.80;99.90
831;DHT22;397;50.564;7.272;2023-01-05T18:52:05;11.90;99.90
831;DHT22;397;50.564;7.272;2023-01-05T18:54:33;11.90;99.90
831;DHT22;397;50.564;7.272;2023-01-05T18:57:00;11.90;99.90
831;DHT22;397;50.564;7.272;2023-01-05T18:59:28;11.90;99.90
831;DHT22;397;50.564;7.272;2023-01-05T19:01:55;11.80;99.90
831;DHT22;397;50.564;7.272;2023-01-05T19:04:23;11.80;99.90
831;DHT22;397;50.564;7.272;2023-01-05T19:06:50;11.80;99.90
831;DHT22;397;50.564;7.272;2023-01-05T19:09:18;11.90;99.90